Time;durP1;ratioP1;P1;durP2;ratioP2;P2;SDS_P1;SDS_P2;PMS_P1;PMS_P2;Temp;Humidity;BMP_temperature;BMP_pressure;BME280_temperature;BME280_humidity;BME280_pressure;Samples;Min_cycle;Max_cycle;Signal;HPM_P1;HPM_P2
2021/06/21 00:00:26;;;;;;;7.17;1.20;;;15.30;99.90;;;;;;5091639;28;20384;-59
2021/06/21 00:02:52;;;;;;;6.23;1.10;;;15.30;99.90;;;;;;5092632;28;20396;-59
2021/06/21 00:05:18;;;;;;;7.35;1.20;;;15.30;99.90;;;;;;5092774;28;20389;-58
2021/06/21 00:07:44;;;;;;;5.68;1.10;;;15.30;99.90;;;;;;5073904;28;20411;-58
2021/06/21 00:10:12;;;;;;;7.20;1.20;;;15.30;99.90;;;;;;5092219;28;20400;-59
2021/06/21 00:12:40;;;;;;;4.55;0.90;;;15.30;99.90;;;;;;5092619;28;20737;-60
2021/06/21 00:15:08;;;;;;;4.25;1.00;;;15.40;99.90;;;;;;5071584;28;20871;-58
2021/06/21 00:17:34;;;;;;;4.03;0.90;;;15.30;99.90;;;;;;5092139;28;20773;-59
2021/06/21 00:20:00;;;;;;;5.55;1.10;;;15.30;99.90;;;;;;5091233;28;20414;-58
2021/06/21 00:22:26;;;;;;;4.35;1.05;;;15.30;99.90;;;;;;5092072;28;20395;-58
2021/06/21 00:24:52;;;;;;;6.55;1.30;;;15.30;99.90;;;;;;5090513;28;20439;-59
2021/06/21 00:27:19;;;;;;;7.13;1.10;;;15.30;99.90;;;;;;5089063;28;20408;-59
2021/06/21 00:29:45;;;;;;;3.95;0.88;;;15.30;99.90;;;;;;5091755;28;20904;-59
2021/06/21 00:32:11;;;;;;;5.77;1.00;;;15.30;99.90;;;;;;5091867;28;20400;-58
2021/06/21 00:34:37;;;;;;;5.70;0.70;;;15.30;99.90;;;;;;5092230;28;20392;-58
2021/06/21 00:37:03;;;;;;;5.70;0.73;;;15.30;99.90;;;;;;5091730;28;20400;-59
2021/06/21 00:39:29;;;;;;;7.38;0.80;;;15.30;99.90;;;;;;5092092;28;20401;-58
2021/06/21 00:41:56;;;;;;;5.78;0.70;;;15.30;99.90;;;;;;5071948;28;20393;-60
2021/06/21 00:44:22;;;;;;;6.20;1.25;;;15.30;99.90;;;;;;5091707;28;20412;-60
2021/06/21 00:46:48;;;;;;;4.10;0.75;;;15.20;99.90;;;;;;5091769;28;20419;-58
2021/06/21 00:49:14;;;;;;;7.00;1.30;;;15.20;99.90;;;;;;5090909;28;20380;-59
2021/06/21 00:51:40;;;;;;;5.37;0.93;;;15.20;99.90;;;;;;5091262;28;20384;-59
2021/06/21 00:54:06;;;;;;;4.03;0.68;;;15.20;99.90;;;;;;5091577;28;20381;-59
2021/06/21 00:56:32;;;;;;;8.20;1.15;;;15.10;99.90;;;;;;5082045;28;20995;-59
2021/06/21 00:58:59;;;;;;;3.97;0.82;;;15.10;99.90;;;;;;5090376;28;20853;-58
2021/06/21 01:01:25;;;;;;;4.07;1.00;;;15.10;99.90;;;;;;5091584;28;20387;-59
2021/06/21 01:03:51;;;;;;;3.13;0.83;;;15.10;99.90;;;;;;5091588;28;20757;-60
2021/06/21 01:06:17;;;;;;;4.50;0.80;;;15.10;99.90;;;;;;5089961;28;20404;-59
2021/06/21 01:08:44;;;;;;;4.88;0.75;;;15.00;99.90;;;;;;5090976;28;20903;-58
2021/06/21 01:11:10;;;;;;;3.65;0.95;;;15.00;99.90;;;;;;5089184;28;20454;-57
2021/06/21 01:13:42;;;;;;;6.95;0.80;;;14.90;99.90;;;;;;5090370;28;20384;-58
2021/06/21 01:16:17;;;;;;;7.50;1.00;;;14.90;99.90;;;;;;5089125;28;20817;-58
2021/06/21 01:18:50;;;;;;;5.43;0.97;;;14.90;99.90;;;;;;5091411;28;20385;-59
2021/06/21 01:21:41;;;;;;;4.20;0.93;;;14.90;99.90;;;;;;5069863;28;20389;-59
2021/06/21 01:24:45;;;;;;;7.93;1.30;;;14.90;99.90;;;;;;5089036;28;20741;-59
2021/06/21 01:27:30;;;;;;;4.45;0.98;;;14.80;99.90;;;;;;5090864;28;20880;-59
2021/06/21 01:30:04;;;;;;;5.43;0.82;;;14.90;99.90;;;;;;5090937;28;20899;-60
2021/06/21 01:32:50;;;;;;;4.60;0.90;;;14.80;99.90;;;;;;5091253;28;20380;-59
2021/06/21 01:35:27;;;;;;;4.28;0.90;;;14.80;99.90;;;;;;5088827;28;20412;-60
2021/06/21 01:37:54;;;;;;;4.90;0.90;;;14.80;99.90;;;;;;5089712;28;20380;-58
2021/06/21 01:40:20;;;;;;;4.10;0.90;;;14.90;99.90;;;;;;5087837;28;20404;-58
2021/06/21 01:42:50;;;;;;;4.80;0.90;;;14.90;99.90;;;;;;5090996;28;20380;-60
2021/06/21 01:45:19;;;;;;;4.32;0.90;;;14.90;99.90;;;;;;5072720;28;20385;-58
2021/06/21 01:47:49;;;;;;;5.68;1.10;;;14.90;99.90;;;;;;5088166;28;20408;-59
2021/06/21 01:50:18;;;;;;;5.05;0.90;;;14.90;99.90;;;;;;5086836;28;20385;-59
2021/06/21 01:52:44;;;;;;;3.67;0.93;;;14.90;99.90;;;;;;5088625;28;20384;-59
2021/06/21 01:55:12;;;;;;;5.57;1.00;;;14.90;99.90;;;;;;5072354;28;20401;-60
2021/06/21 01:57:38;;;;;;;5.57;1.20;;;14.90;99.90;;;;;;5072667;28;20385;-59
2021/06/21 02:00:06;;;;;;;4.32;1.00;;;14.90;99.90;;;;;;5089315;28;20885;-58
2021/06/21 02:02:32;;;;;;;6.05;1.10;;;14.90;99.90;;;;;;5090599;28;20397;-58
2021/06/21 02:05:00;;;;;;;3.40;0.90;;;14.90;99.90;;;;;;5093472;28;20407;-59
2021/06/21 02:07:26;;;;;;;3.80;0.93;;;14.90;99.90;;;;;;5093298;28;20419;-59
2021/06/21 02:09:53;;;;;;;3.87;1.10;;;14.90;99.90;;;;;;5093476;28;20733;-58
2021/06/21 02:12:20;;;;;;;3.92;1.17;;;14.90;99.90;;;;;;5093269;28;20895;-59
2021/06/21 02:14:48;;;;;;;5.53;1.30;;;14.90;99.90;;;;;;5093455;28;20380;-59
2021/06/21 02:17:16;;;;;;;11.82;1.58;;;14.90;99.90;;;;;;5094213;28;20880;-60
2021/06/21 02:19:42;;;;;;;10.65;1.38;;;14.80;99.90;;;;;;5093527;28;20392;-59
2021/06/21 02:22:08;;;;;;;6.50;1.40;;;14.80;99.90;;;;;;5092570;28;20389;-59
2021/06/21 02:24:35;;;;;;;10.07;1.60;;;14.80;99.90;;;;;;5095105;28;20399;-60
2021/06/21 02:27:01;;;;;;;4.97;1.23;;;14.90;99.90;;;;;;5076563;28;20415;-59
2021/06/21 02:29:28;;;;;;;5.85;1.42;;;14.80;99.90;;;;;;5093312;28;20377;-59
2021/06/21 02:31:54;;;;;;;5.45;1.30;;;14.90;99.90;;;;;;5093725;28;20510;-59
2021/06/21 02:34:20;;;;;;;7.93;1.33;;;14.80;99.90;;;;;;5092045;28;20404;-58
2021/06/21 02:36:47;;;;;;;9.15;1.35;;;14.80;99.90;;;;;;5092624;28;20749;-58
2021/06/21 02:39:13;;;;;;;8.88;1.60;;;14.80;99.90;;;;;;5093765;28;20396;-59
2021/06/21 02:41:39;;;;;;;6.28;1.20;;;14.80;99.90;;;;;;5093183;28;20892;-59
2021/06/21 02:44:07;;;;;;;6.77;1.37;;;14.80;99.90;;;;;;5094253;28;20384;-59
2021/06/21 02:46:33;;;;;;;6.05;1.48;;;14.80;99.90;;;;;;5094103;28;20412;-56
2021/06/21 02:49:00;;;;;;;8.98;1.75;;;14.80;99.90;;;;;;5094254;28;20376;-59
2021/06/21 02:51:44;;;;;;;8.30;1.40;;;14.80;99.90;;;;;;5093109;28;20744;-60
2021/06/21 02:54:17;;;;;;;8.80;1.57;;;14.80;99.90;;;;;;5068970;28;20385;-59
2021/06/21 02:56:55;;;;;;;6.03;1.38;;;14.80;99.90;;;;;;5092099;28;20388;-59
2021/06/21 02:59:21;;;;;;;3.92;1.55;;;14.90;99.90;;;;;;5093549;28;20396;-58
2021/06/21 03:01:50;;;;;;;5.20;1.50;;;14.90;99.90;;;;;;5092972;28;20380;-58
2021/06/21 03:04:16;;;;;;;5.03;1.63;;;14.90;99.90;;;;;;5093144;28;20739;-59
2021/06/21 03:06:43;;;;;;;7.03;1.52;;;14.80;99.90;;;;;;5092598;28;20404;-57
2021/06/21 03:09:09;;;;;;;5.15;1.70;;;14.80;99.90;;;;;;5091482;28;20900;-59
2021/06/21 03:11:35;;;;;;;4.15;1.42;;;14.80;99.90;;;;;;5093796;28;20476;-58
2021/06/21 03:14:01;;;;;;;4.30;1.65;;;14.80;99.90;;;;;;5056351;28;20412;-59
2021/06/21 03:16:28;;;;;;;6.38;1.30;;;14.80;99.90;;;;;;5090633;28;20393;-58
2021/06/21 03:18:54;;;;;;;7.25;1.77;;;14.80;99.90;;;;;;5093020;28;20389;-58
2021/06/21 03:21:20;;;;;;;5.35;1.42;;;14.80;99.90;;;;;;5070891;28;20390;-58
2021/06/21 03:23:50;;;;;;;7.70;1.63;;;14.80;99.90;;;;;;5092586;28;20384;-59
2021/06/21 03:26:16;;;;;;;7.38;1.80;;;14.80;99.90;;;;;;5091878;28;20381;-59
2021/06/21 03:28:42;;;;;;;6.28;1.75;;;14.80;99.90;;;;;;5091188;28;20478;-58
2021/06/21 03:31:09;;;;;;;7.32;1.67;;;14.80;99.90;;;;;;5091632;28;20384;-59
2021/06/21 03:33:35;;;;;;;9.35;2.08;;;14.80;99.90;;;;;;5075130;28;20400;-58
2021/06/21 03:36:02;;;;;;;8.70;1.95;;;14.80;99.90;;;;;;5092888;28;20392;-59
2021/06/21 03:38:29;;;;;;;10.27;1.80;;;14.80;99.90;;;;;;5092683;28;20388;-58
2021/06/21 03:41:00;;;;;;;5.85;1.60;;;14.80;99.90;;;;;;5093095;28;20395;-59
2021/06/21 03:43:27;;;;;;;7.82;2.13;;;14.80;99.90;;;;;;5091757;28;20397;-59
2021/06/21 03:45:55;;;;;;;10.27;2.00;;;14.70;99.90;;;;;;5091457;28;20380;-58
2021/06/21 03:48:21;;;;;;;10.00;1.83;;;14.70;99.90;;;;;;5092537;28;20749;-58
2021/06/21 03:50:47;;;;;;;7.95;1.63;;;14.70;99.90;;;;;;5091182;28;20384;-58
2021/06/21 03:53:14;;;;;;;8.05;1.83;;;14.70;99.90;;;;;;5091954;28;22054;-58
2021/06/21 03:55:40;;;;;;;9.15;1.77;;;14.60;99.90;;;;;;5092301;28;20393;-55
2021/06/21 03:58:06;;;;;;;8.50;1.85;;;14.60;99.90;;;;;;5091984;28;20896;-58
2021/06/21 04:00:33;;;;;;;6.07;1.80;;;14.60;99.90;;;;;;5091772;28;20388;-58
2021/06/21 04:02:59;;;;;;;8.98;1.70;;;14.60;99.90;;;;;;5092742;28;20392;-58
2021/06/21 04:05:26;;;;;;;4.82;1.60;;;14.70;99.90;;;;;;5089880;28;20384;-58
2021/06/21 04:07:52;;;;;;;10.18;1.80;;;14.70;99.90;;;;;;5091319;28;20404;-57
2021/06/21 04:10:20;;;;;;;7.27;1.67;;;14.70;99.90;;;;;;5082494;28;20380;-57
2021/06/21 04:12:47;;;;;;;7.93;1.77;;;14.80;99.90;;;;;;5092944;28;20376;-58
2021/06/21 04:15:14;;;;;;;7.00;1.77;;;14.90;99.90;;;;;;5091911;28;20385;-58
2021/06/21 04:17:41;;;;;;;7.28;1.60;;;14.90;99.90;;;;;;5090053;28;20395;-58
2021/06/21 04:20:12;;;;;;;7.22;1.90;;;14.90;99.90;;;;;;5090847;28;20385;-59
2021/06/21 04:22:38;;;;;;;8.95;1.90;;;14.90;99.90;;;;;;5092925;28;20385;-59
2021/06/21 04:25:06;;;;;;;8.98;2.20;;;15.00;99.90;;;;;;5074453;28;20391;-53
2021/06/21 04:27:32;;;;;;;7.97;1.65;;;15.00;99.90;;;;;;5089898;28;20420;-57
2021/06/21 04:29:58;;;;;;;7.55;1.50;;;15.10;99.90;;;;;;5092667;28;20373;-56
2021/06/21 04:32:25;;;;;;;7.57;2.13;;;15.10;99.90;;;;;;5090497;28;20393;-57
2021/06/21 04:34:51;;;;;;;6.82;1.50;;;15.10;99.90;;;;;;5074463;28;20385;-58
2021/06/21 04:37:17;;;;;;;8.95;1.50;;;15.10;99.90;;;;;;5091229;28;20404;-58
2021/06/21 04:39:43;;;;;;;7.22;1.55;;;15.10;99.90;;;;;;5092222;28;20438;-58
2021/06/21 04:42:09;;;;;;;5.82;1.45;;;15.00;99.90;;;;;;5088642;28;20913;-58
2021/06/21 04:44:35;;;;;;;7.93;1.63;;;15.00;99.90;;;;;;5053833;28;20762;-58
2021/06/21 04:47:01;;;;;;;7.30;1.50;;;15.00;99.90;;;;;;5072114;28;20386;-58
2021/06/21 04:49:27;;;;;;;7.45;1.60;;;14.90;99.90;;;;;;5075456;28;20384;-57
2021/06/21 04:51:53;;;;;;;7.60;1.60;;;15.00;99.90;;;;;;5092177;28;20860;-58
2021/06/21 04:54:19;;;;;;;9.07;1.80;;;14.90;99.90;;;;;;5090627;28;20392;-58
2021/06/21 04:56:46;;;;;;;8.57;1.77;;;14.90;99.90;;;;;;5091664;28;20729;-57
2021/06/21 04:59:12;;;;;;;6.15;1.50;;;14.90;99.90;;;;;;5091725;28;20380;-56
2021/06/21 05:01:39;;;;;;;7.18;1.77;;;14.90;99.90;;;;;;5091327;28;20374;-57
2021/06/21 05:04:05;;;;;;;8.02;1.60;;;14.80;99.90;;;;;;5091153;28;20392;-56
2021/06/21 05:06:38;;;;;;;6.85;1.77;;;14.80;99.90;;;;;;5070594;28;20394;-56
2021/06/21 05:09:05;;;;;;;7.25;1.80;;;14.80;99.90;;;;;;5088485;28;20749;-58
2021/06/21 05:11:31;;;;;;;7.97;1.67;;;14.90;99.90;;;;;;5089721;28;20376;-54
2021/06/21 05:13:58;;;;;;;9.90;1.73;;;14.90;99.90;;;;;;5089416;28;20699;-56
2021/06/21 05:16:24;;;;;;;8.40;1.80;;;14.80;99.90;;;;;;5090993;28;20376;-56
2021/06/21 05:18:50;;;;;;;7.47;1.67;;;14.80;99.90;;;;;;5090954;28;20385;-56
2021/06/21 05:21:16;;;;;;;6.85;1.70;;;14.50;99.90;;;;;;5089840;28;20376;-55
2021/06/21 05:23:42;;;;;;;7.15;1.48;;;14.40;99.90;;;;;;5091064;28;20849;-57
2021/06/21 05:26:08;;;;;;;9.98;1.60;;;14.40;99.90;;;;;;5090552;28;20388;-58
2021/06/21 05:28:34;;;;;;;5.75;1.52;;;14.50;99.90;;;;;;5089648;28;20404;-55
2021/06/21 05:31:00;;;;;;;8.35;1.90;;;14.60;99.90;;;;;;5091318;28;20365;-56
2021/06/21 05:33:27;;;;;;;7.05;1.70;;;14.60;99.90;;;;;;5090741;28;20389;-58
2021/06/21 05:35:53;;;;;;;10.40;2.00;;;14.70;99.90;;;;;;5091009;28;20400;-58
2021/06/21 05:38:19;;;;;;;9.13;1.70;;;14.80;99.90;;;;;;5082747;28;20852;-56
2021/06/21 05:40:45;;;;;;;6.22;1.40;;;14.80;99.90;;;;;;5060013;28;20386;-56
2021/06/21 05:43:11;;;;;;;11.80;2.10;;;14.80;99.90;;;;;;5090292;28;20411;-58
2021/06/21 05:45:37;;;;;;;11.13;1.87;;;14.80;99.90;;;;;;5083246;28;20876;-54
2021/06/21 05:48:04;;;;;;;11.18;1.50;;;14.90;99.90;;;;;;5090376;28;20409;-57
2021/06/21 05:50:31;;;;;;;7.93;1.80;;;14.90;99.90;;;;;;5069679;28;20380;-55
2021/06/21 05:52:57;;;;;;;9.45;1.80;;;14.90;99.90;;;;;;5087626;28;20376;-53
2021/06/21 05:55:24;;;;;;;7.53;1.58;;;14.90;99.90;;;;;;5089922;28;20368;-57
2021/06/21 05:57:53;;;;;;;10.50;1.90;;;14.90;99.90;;;;;;5091109;28;20385;-53
2021/06/21 06:00:21;;;;;;;10.15;2.08;;;14.90;99.90;;;;;;5088332;28;20369;-57
2021/06/21 06:02:47;;;;;;;8.02;1.80;;;14.80;99.90;;;;;;5072262;28;20387;-58
2021/06/21 06:05:14;;;;;;;7.03;1.70;;;14.80;99.90;;;;;;5071047;28;20764;-57
2021/06/21 06:07:40;;;;;;;8.40;1.85;;;14.80;99.90;;;;;;5071818;28;20420;-58
2021/06/21 06:10:07;;;;;;;8.43;1.50;;;14.80;99.90;;;;;;5090146;28;20380;-59
2021/06/21 06:12:33;;;;;;;12.00;2.00;;;14.80;99.90;;;;;;5090015;28;20382;-58
2021/06/21 06:14:59;;;;;;;7.30;1.60;;;14.90;99.90;;;;;;5090582;28;20740;-57
2021/06/21 06:17:26;;;;;;;9.48;1.70;;;14.90;99.90;;;;;;5089170;28;20377;-58
2021/06/21 06:19:52;;;;;;;6.83;1.70;;;15.00;99.90;;;;;;5073201;28;20372;-57
2021/06/21 06:22:18;;;;;;;7.00;1.52;;;15.20;99.90;;;;;;5089385;28;20423;-58
2021/06/21 06:24:44;;;;;;;8.68;1.92;;;15.30;99.90;;;;;;5090620;28;20372;-57
2021/06/21 06:27:10;;;;;;;9.82;1.85;;;15.30;99.90;;;;;;5090189;28;20376;-57
2021/06/21 06:29:36;;;;;;;11.27;1.70;;;15.50;99.90;;;;;;5090831;28;20773;-54
2021/06/21 06:32:03;;;;;;;15.00;2.33;;;15.50;99.90;;;;;;5074603;28;20377;-54
2021/06/21 06:34:29;;;;;;;11.83;1.90;;;15.40;99.90;;;;;;5070474;28;20405;-58
2021/06/21 06:36:55;;;;;;;10.95;1.88;;;15.50;99.90;;;;;;5069526;28;20398;-58
2021/06/21 06:39:21;;;;;;;11.05;2.15;;;15.60;99.90;;;;;;5069515;28;20739;-59
2021/06/21 06:41:47;;;;;;;11.63;1.88;;;15.90;99.90;;;;;;5081919;28;20380;-59
2021/06/21 06:44:14;;;;;;;15.05;3.00;;;16.10;99.90;;;;;;5088986;28;20762;-59
2021/06/21 06:46:40;;;;;;;12.38;2.67;;;16.40;99.90;;;;;;5090510;28;20392;-56
2021/06/21 06:49:06;;;;;;;11.65;3.35;;;16.20;99.90;;;;;;5088685;28;20417;-57
2021/06/21 06:51:43;;;;;;;8.30;1.70;;;16.40;99.90;;;;;;5093663;28;20368;-59
2021/06/21 06:56:58;;;;;;;25.77;3.38;;;16.20;99.90;;;;;;5093040;28;20909;-58
2021/06/21 06:59:32;;;;;;;40.08;4.22;;;16.20;99.90;;;;;;5077504;28;20385;-57
2021/06/21 07:01:59;;;;;;;14.40;2.70;;;16.30;99.90;;;;;;5092217;28;20400;-57
2021/06/21 07:04:26;;;;;;;26.73;3.80;;;16.50;99.90;;;;;;5080509;28;20419;-57
2021/06/21 07:06:52;;;;;;;31.05;3.65;;;16.60;99.90;;;;;;5081535;28;20405;-54
2021/06/21 07:09:18;;;;;;;29.33;3.83;;;16.70;99.90;;;;;;5091556;28;20407;-55
2021/06/21 07:11:47;;;;;;;12.20;2.28;;;16.60;99.90;;;;;;5092936;28;20377;-57
2021/06/21 07:14:14;;;;;;;17.05;2.20;;;16.50;99.90;;;;;;5092414;28;20419;-57
2021/06/21 07:16:40;;;;;;;12.13;2.33;;;16.40;99.90;;;;;;5092523;28;20385;-53
2021/06/21 07:19:06;;;;;;;11.27;2.28;;;16.30;99.90;;;;;;5093179;28;20388;-58
2021/06/21 07:21:32;;;;;;;11.55;1.92;;;16.30;99.90;;;;;;5093106;28;20396;-56
2021/06/21 07:23:58;;;;;;;77.40;7.90;;;16.10;99.90;;;;;;5093166;28;20380;-56
2021/06/21 07:26:24;;;;;;;25.43;3.50;;;16.20;99.90;;;;;;5092761;28;20428;-55
2021/06/21 07:28:51;;;;;;;86.30;8.40;;;16.40;99.90;;;;;;5092006;28;20416;-57
2021/06/21 07:31:17;;;;;;;7.05;1.90;;;16.90;99.90;;;;;;5092698;28;20388;-57
2021/06/21 07:33:43;;;;;;;18.23;2.70;;;17.40;99.90;;;;;;5091562;28;20890;-54
2021/06/21 07:36:09;;;;;;;39.35;4.97;;;17.40;99.90;;;;;;5082501;28;20392;-58
2021/06/21 07:38:35;;;;;;;10.15;2.70;;;17.20;99.90;;;;;;5090183;28;20852;-58
2021/06/21 07:41:03;;;;;;;9.90;2.00;;;17.30;99.90;;;;;;5092745;28;20389;-54
2021/06/21 07:43:29;;;;;;;14.13;2.20;;;17.10;99.90;;;;;;5092550;28;20388;-56
2021/06/21 07:45:55;;;;;;;11.05;2.20;;;17.00;99.90;;;;;;5093065;28;20389;-58
2021/06/21 07:48:21;;;;;;;8.80;2.08;;;17.10;99.90;;;;;;5092098;28;20416;-57
2021/06/21 07:50:47;;;;;;;8.60;1.60;;;17.10;99.90;;;;;;5092361;28;20377;-57
2021/06/21 07:53:13;;;;;;;6.17;1.80;;;17.20;99.90;;;;;;5092846;28;20892;-58
2021/06/21 07:55:39;;;;;;;8.55;1.60;;;17.20;99.90;;;;;;5091424;28;20381;-59
2021/06/21 07:58:05;;;;;;;7.57;1.80;;;17.00;99.90;;;;;;5092255;28;20389;-58
2021/06/21 08:00:33;;;;;;;8.90;2.08;;;17.30;99.90;;;;;;5090453;28;20742;-55
2021/06/21 08:02:59;;;;;;;10.15;2.17;;;17.30;99.90;;;;;;5092372;28;20416;-56
2021/06/21 08:05:26;;;;;;;7.95;1.80;;;17.10;99.90;;;;;;5089846;28;20404;-58
2021/06/21 08:07:52;;;;;;;8.52;1.83;;;17.20;99.90;;;;;;5092168;28;20419;-58
2021/06/21 08:10:19;;;;;;;9.73;2.00;;;17.20;99.90;;;;;;5091362;28;20391;-57
2021/06/21 08:12:45;;;;;;;11.35;2.17;;;17.30;99.90;;;;;;5068284;28;20394;-57
2021/06/21 08:15:12;;;;;;;10.32;2.08;;;17.00;99.90;;;;;;5090578;28;20385;-59
2021/06/21 08:17:39;;;;;;;10.50;2.30;;;16.90;99.90;;;;;;5073736;28;20404;-57
2021/06/21 08:20:06;;;;;;;9.50;2.20;;;17.20;99.90;;;;;;5091281;28;20388;-58
2021/06/21 08:22:32;;;;;;;9.18;2.13;;;16.90;99.90;;;;;;5073431;28;20385;-58
2021/06/21 08:24:59;;;;;;;9.87;1.80;;;17.10;99.90;;;;;;5092655;28;20393;-57
2021/06/21 08:27:25;;;;;;;8.95;1.90;;;17.10;99.90;;;;;;5091103;28;20884;-57
2021/06/21 08:29:51;;;;;;;8.95;1.83;;;17.20;99.90;;;;;;5091969;28;20721;-58
2021/06/21 08:32:17;;;;;;;14.77;2.13;;;17.30;99.90;;;;;;5091264;28;20380;-55
2021/06/21 08:34:43;;;;;;;21.25;2.35;;;17.30;99.90;;;;;;5088126;28;20412;-59
2021/06/21 08:37:09;;;;;;;15.10;2.15;;;16.90;99.90;;;;;;5086148;28;20389;-58
2021/06/21 08:39:38;;;;;;;16.27;1.90;;;16.80;99.90;;;;;;5091235;28;20384;-60
2021/06/21 08:42:05;;;;;;;11.25;2.13;;;16.50;99.90;;;;;;5090871;28;20830;-59
2021/06/21 08:44:35;;;;;;;18.45;2.42;;;16.40;99.90;;;;;;5090755;28;20384;-60
2021/06/21 08:47:02;;;;;;;40.40;4.88;;;16.20;99.90;;;;;;5091727;28;20376;-59
2021/06/21 08:49:28;;;;;;;15.13;3.30;;;16.20;99.90;;;;;;5091446;28;20431;-63
2021/06/21 08:51:54;;;;;;;10.07;1.90;;;16.40;99.90;;;;;;5090583;28;20377;-61
2021/06/21 08:54:20;;;;;;;11.88;2.10;;;16.30;99.90;;;;;;5088756;28;20392;-61
2021/06/21 08:56:46;;;;;;;9.68;2.03;;;16.30;99.90;;;;;;5091143;28;20377;-60
2021/06/21 08:59:13;;;;;;;12.55;2.15;;;16.20;99.90;;;;;;5091834;28;20388;-60
2021/06/21 09:01:39;;;;;;;23.80;2.60;;;16.30;99.90;;;;;;5091227;28;20408;-60
2021/06/21 09:04:09;;;;;;;12.20;3.03;;;16.40;99.90;;;;;;5082264;28;20407;-59
2021/06/21 09:06:36;;;;;;;17.73;2.95;;;16.40;99.90;;;;;;5091158;28;20443;-61
2021/06/21 09:09:03;;;;;;;25.80;3.80;;;16.40;99.90;;;;;;5090874;28;20411;-62
2021/06/21 09:11:49;;;;;;;8.82;2.50;;;16.50;99.90;;;;;;5082882;28;20484;-61
2021/06/21 09:14:24;;;;;;;8.90;2.88;;;16.40;99.90;;;;;;5090085;28;20903;-61
2021/06/21 09:16:57;;;;;;;9.38;2.50;;;16.30;99.90;;;;;;5091399;28;20395;-60
2021/06/21 09:19:23;;;;;;;9.57;3.08;;;16.40;99.90;;;;;;5088522;28;20385;-61
2021/06/21 09:21:49;;;;;;;11.63;3.00;;;16.40;99.90;;;;;;5088846;28;20396;-61
2021/06/21 09:24:19;;;;;;;12.45;2.92;;;16.30;99.90;;;;;;5090820;28;20380;-58
2021/06/21 09:26:47;;;;;;;8.60;2.85;;;16.20;99.90;;;;;;5087815;28;20395;-61
2021/06/21 09:29:14;;;;;;;9.13;2.92;;;16.30;99.90;;;;;;5090362;28;20415;-63
2021/06/21 09:31:50;;;;;;;11.95;3.35;;;16.30;99.90;;;;;;5089438;28;20729;-60
2021/06/21 09:34:18;;;;;;;10.55;2.90;;;16.30;99.90;;;;;;5069357;28;20406;-61
2021/06/21 09:36:44;;;;;;;9.07;3.30;;;16.30;99.90;;;;;;5088553;28;20399;-61
2021/06/21 09:39:17;;;;;;;10.43;2.85;;;16.30;99.90;;;;;;5090628;28;20399;-61
2021/06/21 09:41:44;;;;;;;9.02;3.20;;;16.20;99.90;;;;;;5082796;28;20384;-61
2021/06/21 09:44:30;;;;;;;6.10;2.40;;;16.30;99.90;;;;;;5088791;28;20372;-61
2021/06/21 09:47:10;;;;;;;8.30;2.43;;;16.20;99.90;;;;;;5089769;28;20380;-61
2021/06/21 09:49:37;;;;;;;10.32;2.90;;;16.10;99.90;;;;;;5087330;28;20405;-61
2021/06/21 09:52:03;;;;;;;36.87;5.50;;;16.20;99.90;;;;;;5077922;28;20741;-61
2021/06/21 09:54:33;;;;;;;16.23;3.63;;;16.40;99.90;;;;;;5089586;28;20391;-62
2021/06/21 09:57:11;;;;;;;28.83;5.53;;;16.30;99.90;;;;;;5053698;28;20846;-61
2021/06/21 09:59:46;;;;;;;10.35;3.00;;;16.30;99.90;;;;;;5068975;28;20386;-61
2021/06/21 10:02:21;;;;;;;10.50;3.55;;;16.10;99.90;;;;;;5079729;28;20376;-62
2021/06/21 10:04:48;;;;;;;14.10;3.30;;;16.10;99.90;;;;;;5082868;28;20413;-61
2021/06/21 10:07:34;;;;;;;13.87;3.53;;;16.00;99.90;;;;;;5090133;28;20451;-62
2021/06/21 10:10:05;;;;;;;10.63;2.85;;;16.00;99.90;;;;;;5089350;28;20397;-60
2021/06/21 10:12:31;;;;;;;10.70;2.80;;;16.00;99.90;;;;;;5089381;28;20377;-61
2021/06/21 10:14:57;;;;;;;8.35;3.05;;;16.00;99.90;;;;;;5089961;28;20388;-60
2021/06/21 10:17:23;;;;;;;12.55;3.45;;;16.00;99.90;;;;;;5087627;28;20372;-61
2021/06/21 10:19:49;;;;;;;12.30;3.25;;;16.10;99.90;;;;;;5089869;28;20872;-61
2021/06/21 10:22:19;;;;;;;13.10;3.38;;;16.30;99.90;;;;;;5071540;28;20384;-60
2021/06/21 10:24:45;;;;;;;12.05;3.40;;;16.30;99.90;;;;;;5082538;28;20407;-59
2021/06/21 10:27:13;;;;;;;6.65;2.33;;;16.60;99.90;;;;;;5092953;28;20399;-60
2021/06/21 10:29:39;;;;;;;12.43;3.55;;;16.70;99.90;;;;;;5093727;28;20414;-60
2021/06/21 10:32:06;;;;;;;11.07;2.67;;;16.90;99.90;;;;;;5093417;28;20385;-60
2021/06/21 10:34:32;;;;;;;9.98;2.90;;;17.10;99.90;;;;;;5073664;28;20773;-60
2021/06/21 10:36:58;;;;;;;13.80;2.75;;;17.40;99.90;;;;;;5090822;28;20392;-60
2021/06/21 10:39:29;;;;;;;8.75;2.38;;;17.90;99.90;;;;;;5092513;28;20399;-60
2021/06/21 10:42:22;;;;;;;8.80;2.17;;;18.00;99.90;;;;;;5072883;28;20388;-61
2021/06/21 10:44:58;;;;;;;13.25;2.78;;;17.60;99.90;;;;;;5089082;28;20395;-60
2021/06/21 10:47:41;;;;;;;12.10;2.65;;;17.60;99.90;;;;;;5090840;28;20404;-61
2021/06/21 10:50:16;;;;;;;7.85;2.25;;;17.70;99.90;;;;;;5093450;28;20400;-61
2021/06/21 10:52:48;;;;;;;11.05;2.53;;;17.60;99.90;;;;;;5091224;28;20865;-60
2021/06/21 10:55:20;;;;;;;8.38;2.60;;;17.60;99.90;;;;;;5093071;28;20899;-61
2021/06/21 10:57:47;;;;;;;9.90;2.83;;;17.50;99.90;;;;;;5093420;28;20392;-61
2021/06/21 11:00:14;;;;;;;9.55;2.90;;;17.40;99.90;;;;;;5093673;28;20384;-59
2021/06/21 11:02:40;;;;;;;6.80;2.33;;;17.50;99.90;;;;;;5093618;28;20411;-61
2021/06/21 11:05:07;;;;;;;6.88;2.60;;;17.50;99.90;;;;;;5092322;28;20396;-62
2021/06/21 11:07:33;;;;;;;9.85;2.78;;;17.50;99.90;;;;;;5091698;28;20448;-61
2021/06/21 11:10:01;;;;;;;8.80;2.40;;;17.60;99.90;;;;;;5070135;28;20416;-61
2021/06/21 11:12:30;;;;;;;8.47;2.87;;;17.60;99.90;;;;;;5054770;28;20387;-61
2021/06/21 11:15:03;;;;;;;8.27;2.50;;;17.70;99.90;;;;;;5091381;28;20915;-60
2021/06/21 11:17:30;;;;;;;5.65;2.10;;;17.70;99.90;;;;;;5092674;28;20381;-62
2021/06/21 11:19:57;;;;;;;11.65;2.72;;;17.70;99.90;;;;;;5092560;28;20400;-61
2021/06/21 11:22:39;;;;;;;10.25;2.80;;;17.70;99.90;;;;;;5074438;28;20380;-62
2021/06/21 11:25:19;;;;;;;7.00;2.47;;;17.70;99.90;;;;;;5090245;28;20384;-61
2021/06/21 11:27:45;;;;;;;8.98;2.50;;;17.70;99.90;;;;;;5092370;28;20373;-61
2021/06/21 11:30:44;;;;;;;8.52;2.30;;;17.80;99.90;;;;;;5092817;28;20903;-60
2021/06/21 11:33:12;;;;;;;9.80;2.60;;;17.60;99.90;;;;;;5080774;28;20396;-63
2021/06/21 11:36:01;;;;;;;9.32;2.80;;;17.90;99.90;;;;;;5088613;28;20407;-64
2021/06/21 11:38:28;;;;;;;7.22;2.22;;;18.40;99.90;;;;;;5090286;28;20389;-64
2021/06/21 11:41:17;;;;;;;10.70;2.90;;;18.60;99.90;;;;;;5090884;28;20376;-64
2021/06/21 11:44:00;;;;;;;11.50;2.42;;;18.70;99.90;;;;;;5090221;28;20385;-64
2021/06/21 11:46:37;;;;;;;9.38;2.00;;;18.90;99.90;;;;;;5089747;28;20403;-63
2021/06/21 11:49:14;;;;;;;8.02;2.00;;;18.70;99.90;;;;;;5090464;28;20408;-63
2021/06/21 11:52:03;;;;;;;6.63;1.73;;;18.50;99.90;;;;;;5091751;28;20820;-63
2021/06/21 11:54:37;;;;;;;7.75;1.88;;;18.40;99.90;;;;;;5083456;28;20891;-64
2021/06/21 11:57:03;;;;;;;8.50;2.10;;;18.10;99.90;;;;;;5092578;28;20726;-61
2021/06/21 11:59:35;;;;;;;10.52;2.03;;;18.30;99.90;;;;;;5073698;28;20404;-61
2021/06/21 12:02:03;;;;;;;7.63;1.80;;;18.70;99.90;;;;;;5061671;28;20391;-60
2021/06/21 12:04:29;;;;;;;9.13;2.05;;;18.60;99.90;;;;;;5085677;28;20896;-61
2021/06/21 12:06:55;;;;;;;9.82;2.05;;;18.50;99.90;;;;;;5092347;28;20400;-62
2021/06/21 12:09:21;;;;;;;11.20;2.33;;;18.40;99.90;;;;;;5092155;28;20916;-62
2021/06/21 12:11:52;;;;;;;8.10;1.80;;;18.30;99.90;;;;;;5091961;28;20402;-61
2021/06/21 12:14:23;;;;;;;7.63;2.08;;;18.30;99.90;;;;;;5092350;28;20393;-62
2021/06/21 12:16:49;;;;;;;8.32;2.00;;;18.50;99.90;;;;;;5070543;28;20734;-62
2021/06/21 12:19:15;;;;;;;9.93;2.17;;;18.40;99.90;;;;;;5088519;28;20733;-63
2021/06/21 12:21:45;;;;;;;7.50;2.00;;;18.50;99.90;;;;;;5091226;28;20384;-62
2021/06/21 12:24:23;;;;;;;8.10;2.17;;;18.60;99.90;;;;;;5090656;28;20864;-63
2021/06/21 12:26:51;;;;;;;11.60;2.53;;;18.90;99.90;;;;;;5091563;28;20730;-62
2021/06/21 12:29:38;;;;;;;8.38;2.28;;;18.70;99.90;;;;;;5092063;28;20408;-63
2021/06/21 12:32:09;;;;;;;8.18;2.03;;;18.80;99.90;;;;;;5091262;28;20876;-63
2021/06/21 12:34:45;;;;;;;9.87;2.07;;;18.90;99.90;;;;;;5083810;28;21964;-62
2021/06/21 12:37:34;;;;;;;9.63;2.83;;;18.90;99.90;;;;;;5091526;28;20395;-61
2021/06/21 12:40:01;;;;;;;9.48;2.30;;;18.50;99.90;;;;;;5090676;28;20380;-61
2021/06/21 12:42:32;;;;;;;10.93;2.17;;;18.40;99.90;;;;;;5069863;28;20422;-62
2021/06/21 12:45:08;;;;;;;11.20;2.72;;;18.30;99.90;;;;;;5071196;28;20372;-62
2021/06/21 12:47:34;;;;;;;8.77;2.10;;;18.10;99.90;;;;;;5069473;28;20394;-62
2021/06/21 12:50:07;;;;;;;12.15;2.60;;;17.90;99.90;;;;;;5089096;28;20400;-62
2021/06/21 12:52:34;;;;;;;11.27;2.25;;;18.00;99.90;;;;;;5072709;28;20395;-62